Latest Weather Observations for Troughton Island

IDD60801

Issued at 1:31 pm CST Wednesday 24 August 2016 (issued every 30 minutes, with the page automatically refreshed every 10 minutes)

About weather observations | Map of weather stations | Latest weather observations for NT | Other Formats
Station Details ID: 001007 Name: TROUGHTON ISLAND Lat: -13.75 Lon: 126.15 Height: 6.0 m
Data from the previous 72 hours. | See also: Recent months at Troughton Island
Date/Time
CST
Temp
°C
App
Temp
°C
Dew
Point
°C
Rel
Hum
%
Delta-T
°C
Wind Press
QNH
hPa
Press
MSL
hPa
Rain since
9am
mm
Dir  Spd
km/h
Gust
km/h
Spd
kts
Gust
kts
24/01:30pm 28.8 26.9 10.5 32 10.4 E 11 15 6 8 1010.6 1010.5 0.0
24/01:00pm 29.4 28.3 13.2 37 9.6 E 11 13 6 7 1010.9 1010.8 0.0
24/12:30pm 28.5 26.5 11.6 35 9.7 ESE 13 17 7 9 1011.4 1011.3 0.0
24/12:00pm 28.2 25.5 10.4 33 10.0 SE 15 19 8 10 1011.7 1011.6 0.0
24/11:30am 27.9 25.3 11.9 37 9.2 SE 17 22 9 12 1012.2 1012.1 0.0
24/11:00am 27.6 23.8 9.0 31 10.2 SE 19 22 10 12 1012.7 1012.6 0.0
24/10:30am 27.9 23.0 4.2 22 12.0 SSE 19 24 10 13 1013.0 1012.9 0.0
24/10:00am 27.7 24.2 8.6 30 10.4 SSE 17 22 9 12 1013.0 1012.9 0.0
24/09:30am 27.1 23.4 9.5 33 9.7 SSE 19 22 10 12 1012.7 1012.6 0.0
24/09:00am 27.0 24.2 11.5 38 8.9 SSE 17 22 9 12 1012.6 1012.5 0.0
24/08:30am 26.3 23.4 12.4 42 8.0 SSE 19 20 10 11 1012.5 1012.4 0.0
24/08:00am 25.4 23.2 13.3 47 7.1 SSE 17 20 9 11 1012.2 1012.1 0.0
24/07:30am 24.2 22.0 15.9 59 5.0 SE 22 26 12 14 1011.8 1011.7 0.0
24/07:00am 25.2 23.1 16.1 57 5.6 S 22 26 12 14 1011.6 1011.5 0.0
24/06:30am 25.3 23.7 16.4 57 5.5 SSW 20 24 11 13 1011.0 1010.9 0.0
24/06:00am 25.8 23.1 14.6 50 6.7 SW 22 26 12 14 1010.7 1010.6 0.0
24/05:30am 26.1 24.5 16.4 55 6.0 SW 20 26 11 14 1010.3 1010.2 0.0
24/05:00am 26.2 23.7 16.2 54 6.1 SW 24 30 13 16 1010.3 1010.2 0.0
24/04:30am 26.3 24.4 16.8 56 5.9 WSW 22 28 12 15 1010.2 1010.1 0.0
24/04:00am 26.3 24.4 16.8 56 5.9 WSW 22 28 12 15 1010.1 1010.0 0.0
24/03:30am 26.1 24.7 18.0 61 5.1 WSW 22 26 12 14 1010.0 1009.9 0.0
24/03:00am 25.9 24.6 18.1 62 4.9 WSW 22 28 12 15 1009.9 1009.8 0.0
24/02:30am 26.0 24.8 19.2 66 4.4 WSW 24 28 13 15 1009.9 1009.8 0.0
24/02:00am 26.0 24.0 18.4 63 4.8 WSW 26 30 14 16 1009.9 1009.8 0.0
24/01:30am 25.9 23.8 18.1 62 4.9 WSW 26 32 14 17 1009.9 1009.8 0.0
24/01:00am 26.0 24.0 18.4 63 4.8 WSW 26 32 14 17 1010.1 1010.0 0.0
24/12:30am 26.0 24.3 18.2 62 4.9 WSW 24 28 13 15 1010.3 1010.2 0.0
24/12:00am 25.5 23.7 17.9 63 4.8 WSW 24 28 13 15 1010.2 1010.1 0.0
 
Date/Time
CST
Temp
°C
App
Temp
°C
Dew
Point
°C
Rel
Hum
%
Delta-T
°C
Wind Press
QNH
hPa
Press
MSL
hPa
Rain since
9am
mm
Dir  Spd
km/h
Gust
km/h
Spd
kts
Gust
kts
23/11:30pm 25.5 23.9 18.4 65 4.5 W 24 26 13 14 1010.2 1010.1 0.0
23/11:00pm 25.4 23.7 18.1 64 4.6 W 24 30 13 16 1010.3 1010.2 0.0
23/10:30pm 25.7 23.3 17.4 60 5.2 W 26 30 14 16 1010.2 1010.1 0.0
23/10:00pm 25.6 23.9 18.0 63 4.8 W 24 28 13 15 1010.1 1010.0 0.0
23/09:30pm 25.6 23.5 18.0 63 4.8 W 26 30 14 16 1009.8 1009.7 0.0
23/09:00pm 25.7 23.2 18.1 63 4.8 WSW 28 33 15 18 1009.7 1009.6 0.0
23/08:30pm 25.6 23.9 19.0 67 4.2 W 26 32 14 17 1009.5 1009.4 0.0
23/08:00pm 25.6 24.2 18.8 66 4.3 WSW 24 30 13 16 1009.4 1009.3 0.0
23/07:30pm 25.8 24.1 18.0 62 4.9 W 24 30 13 16 1009.1 1009.0 0.0
23/07:00pm 26.0 24.3 17.1 58 5.5 W 22 26 12 14 1008.7 1008.6 0.0
23/06:30pm 26.6 24.9 18.2 60 5.3 WSW 24 30 13 16 1008.6 1008.5 0.0
23/06:00pm 27.2 25.0 18.8 60 5.4 WSW 28 33 15 18 1008.3 1008.2 0.0
23/05:30pm 27.6 26.3 19.1 59 5.5 WSW 24 30 13 16 1008.1 1008.0 0.0
23/05:00pm 28.1 25.5 17.9 54 6.5 SW 28 32 15 17 1008.0 1007.9 0.0
23/04:30pm 28.4 26.4 18.2 54 6.5 WSW 26 32 14 17 1008.1 1008.0 0.0
23/04:00pm 29.0 26.9 18.1 51 7.0 WSW 26 30 14 16 1008.0 1007.9 0.0
23/03:30pm 28.7 27.3 16.6 48 7.6 WSW 19 24 10 13 1008.3 1008.2 0.0
23/03:00pm 29.0 28.3 16.5 46 7.8 WSW 15 19 8 10 1008.5 1008.4 0.0
23/02:30pm 28.9 28.1 17.1 49 7.4 WSW 17 20 9 11 1008.8 1008.7 0.0
23/02:00pm 28.9 28.2 16.5 47 7.7 WSW 15 20 8 11 1009.3 1009.2 0.0
23/01:30pm 28.8 27.6 16.0 45 7.9 WSW 17 20 9 11 1009.7 1009.6 0.0
23/01:00pm 28.7 27.1 15.9 45 7.9 SW 19 22 10 12 1009.9 1009.8 0.0
23/12:30pm 29.5 28.2 17.3 47 7.7 SW 20 26 11 14 1010.3 1010.2 0.0
23/12:00pm 28.7 26.4 16.6 48 7.5 SW 24 30 13 16 1010.6 1010.5 0.0
23/11:30am 28.6 26.8 17.8 52 6.9 SW 24 30 13 16 1011.1 1011.0 0.0
23/11:00am 28.3 26.2 17.2 51 7.0 SW 24 32 13 17 1011.3 1011.2 0.0
23/10:30am 28.3 27.1 18.4 55 6.3 SW 22 30 12 16 1011.5 1011.4 0.0
23/10:00am 27.7 26.6 18.7 58 5.8 SW 22 28 12 15 1011.5 1011.4 0.0
23/09:30am 27.2 26.3 19.0 61 5.3 SSW 22 28 12 15 1011.4 1011.3 0.0
23/09:00am 26.7 24.8 18.6 61 5.2 SW 26 30 14 16 1011.3 1011.2 0.0
23/08:30am 26.1 24.8 19.0 65 4.6 SSW 24 30 13 16 1011.1 1011.0 0.0
23/08:00am 25.7 24.2 18.6 65 4.5 SSW 24 30 13 16 1010.9 1010.8 0.0
23/07:30am 25.7 24.1 19.1 67 4.2 SW 26 32 14 17 1010.6 1010.5 0.0
23/07:00am 25.9 23.9 17.5 59 5.3 SW 24 30 13 16 1010.1 1010.0 0.0
23/06:30am 26.0 24.0 17.4 59 5.4 SW 24 30 13 16 1009.8 1009.7 0.0
23/06:00am 26.1 24.6 17.7 60 5.3 WSW 22 28 12 15 1009.7 1009.6 0.0
23/05:30am 25.9 24.6 17.3 59 5.4 WSW 20 24 11 13 1009.5 1009.4 0.0
23/05:00am 26.0 24.8 18.4 63 4.8 WSW 22 26 12 14 1009.5 1009.4 0.0
23/04:30am 25.7 24.2 18.6 65 4.5 WSW 24 28 13 15 1009.2 1009.1 0.0
23/04:00am 25.7 25.4 20.3 72 3.5 WSW 22 28 12 15 1009.2 1009.1 0.0
23/03:30am 25.9 25.9 20.2 71 3.7 WSW 20 24 11 13 1009.4 1009.3 0.0
23/03:00am 26.1 25.3 20.0 69 4.0 WSW 24 28 13 15 1009.5 1009.4 0.0
23/02:30am 26.3 25.0 19.9 68 4.2 WSW 26 30 14 16 1009.7 1009.6 0.0
23/02:00am 26.3 25.3 20.4 70 3.9 WSW 26 32 14 17 1009.7 1009.6 0.0
23/01:30am 26.5 26.1 21.0 72 3.6 WSW 24 30 13 16 1009.8 1009.7 0.0
23/01:00am 26.5 25.9 21.3 73 3.4 WSW 26 30 14 16 1009.9 1009.8 0.0
23/12:30am 26.6 26.5 21.4 73 3.5 WSW 24 28 13 15 1010.1 1010.0 0.0
23/12:00am 26.5 27.1 21.3 73 3.4 W 20 24 11 13 1010.1 1010.0 0.0
 
Date/Time
CST
Temp
°C
App
Temp
°C
Dew
Point
°C
Rel
Hum
%
Delta-T
°C
Wind Press
QNH
hPa
Press
MSL
hPa
Rain since
9am
mm
Dir  Spd
km/h
Gust
km/h
Spd
kts
Gust
kts
22/11:30pm 26.3 25.7 20.4 70 3.9 WSW 24 26 13 14 1010.1 1010.0 0.0
22/11:00pm 26.2 26.5 20.8 72 3.6 WSW 20 24 11 13 1010.2 1010.1 0.0
22/10:30pm 26.1 26.4 20.7 72 3.6 W 20 24 11 13 1010.1 1010.0 0.0
22/10:00pm 26.1 26.5 20.9 73 3.4 W 20 24 11 13 1010.1 1010.0 0.0
22/09:30pm 26.4 26.3 20.7 71 3.8 WSW 22 26 12 14 1010.2 1010.1 0.0
22/09:00pm 26.4 26.2 20.5 70 3.9 WSW 22 26 12 14 1010.0 1009.9 0.0
22/08:30pm 26.1 27.7 21.5 76 3.1 W 15 19 8 10 1009.8 1009.7 0.0
22/08:00pm 26.3 27.6 21.7 76 3.1 W 17 20 9 11 1009.4 1009.3 0.0
22/07:30pm 26.3 26.9 21.1 73 3.4 W 19 20 10 11 1008.9 1008.8 0.0
22/07:00pm 26.2 24.6 19.3 65 4.4 WSW 26 32 14 17 1008.5 1008.4 0.0
22/06:30pm 26.6 25.4 20.9 71 3.8 WSW 28 33 15 18 1008.3 1008.2 0.0
22/06:00pm 27.6 28.2 22.1 72 3.7 W 22 24 12 13 1008.0 1007.9 0.0
22/05:30pm 28.3 28.4 21.8 68 4.4 W 24 30 13 16 1007.9 1007.8 0.0
22/05:00pm 28.9 30.1 22.2 67 4.5 WNW 19 22 10 12 1007.7 1007.6 0.0
22/04:30pm 29.3 30.6 22.3 66 4.7 WNW 19 20 10 11 1007.9 1007.8 0.0
22/04:00pm 28.6 29.4 21.4 65 4.8 WNW 19 22 10 12 1008.1 1008.0 0.0
22/03:30pm 29.9 30.7 21.3 60 5.8 WNW 19 22 10 12 1008.4 1008.3 0.0
22/03:00pm 29.3 29.6 20.5 59 5.8 NW 19 20 10 11 1008.6 1008.5 0.0
22/02:30pm 29.2 29.3 20.4 59 5.8 NNW 20 22 11 12 1008.9 1008.8 0.0
22/02:00pm 29.5 30.0 20.9 60 5.7 NNW 19 22 10 12 1009.2 1009.1 0.0
22/01:30pm 28.7 29.0 20.4 60 5.5 NNW 19 24 10 13 1009.5 1009.4 0.0
22/01:00pm 28.4 28.1 19.6 59 5.7 N 20 24 11 13 1010.0 1009.9 0.0
22/12:30pm 29.2 28.7 19.2 54 6.5 NNW 20 24 11 13 1010.2 1010.1 0.0
22/12:00pm 28.4 29.1 19.6 59 5.7 N 15 20 8 11 1010.7 1010.6 0.0
22/11:30am 28.2 28.9 21.2 65 4.7 N 19 22 10 12 1011.1 1011.0 0.0
22/11:00am 26.5 26.1 21.0 72 3.6 N 24 30 13 16 1011.4 1011.3 0.0
22/10:30am 27.3 28.6 21.6 71 3.8 NNW 17 20 9 11 1011.6 1011.5 0.0
22/10:00am 27.7 29.0 21.7 70 4.0 NNW 17 20 9 11 1011.4 1011.3 0.0
22/09:30am 27.1 29.0 21.4 71 3.8 NNW 13 19 7 10 1011.2 1011.1 0.0
22/09:00am 27.2 28.8 21.5 71 3.8 NNW 15 17 8 9 1011.0 1010.9 0.0
22/08:30am 27.1 29.5 22.3 75 3.2 NNW 13 15 7 8 1010.7 1010.6 0.0
22/08:00am 25.8 28.4 21.9 79 2.6 NNW 11 13 6 7 1010.4 1010.3 0.0
22/07:30am 24.9 27.3 21.6 82 2.2 NNW 11 13 6 7 1010.3 1010.2 0.0
22/07:00am 24.7 27.0 21.4 82 2.2 NW 11 13 6 7 1009.9 1009.8 0.0
22/06:30am 24.6 27.4 21.5 83 2.1 NW 9 11 5 6 1009.6 1009.5 0.0
22/06:00am 24.8 27.1 21.3 81 2.3 NW 11 13 6 7 1009.5 1009.4 0.0
22/05:30am 25.0 27.4 21.5 81 2.3 NW 11 11 6 6 1009.4 1009.3 0.0
22/05:00am 25.2 27.6 21.5 80 2.5 WNW 11 13 6 7 1009.4 1009.3 0.0
22/04:30am 25.1 27.5 21.6 81 2.3 WNW 11 11 6 6 1009.4 1009.3 0.0
22/04:00am 24.8 27.6 21.5 82 2.2 NW 9 11 5 6 1009.6 1009.5 0.0
22/03:30am 25.2 28.5 21.5 80 2.5 NNW 6 7 3 4 1009.7 1009.6 0.0
22/03:00am 25.5 28.4 21.8 80 2.5 NNW 9 11 5 6 1010.1 1010.0 0.0
22/02:30am 25.8 29.3 22.1 80 2.5 N 7 9 4 5 1010.2 1010.1 0.0
22/02:00am 25.8 29.0 22.3 81 2.3 N 9 11 5 6 1010.4 1010.3 0.0
22/01:30am 25.9 28.5 22.0 79 2.6 N 11 13 6 7 1010.8 1010.7 0.0
22/01:00am 26.0 29.6 22.3 80 2.5 N 7 9 4 5 1011.2 1011.1 0.0
22/12:30am 25.9 29.6 22.2 80 2.5 NNW 6 7 3 4 1011.4 1011.3 0.0
22/12:00am 25.5 29.1 22.0 81 2.3 N 6 7 3 4 1011.6 1011.5 0.0
 
Date/Time
CST
Temp
°C
App
Temp
°C
Dew
Point
°C
Rel
Hum
%
Delta-T
°C
Wind Press
QNH
hPa
Press
MSL
hPa
Rain since
9am
mm
Dir  Spd
km/h
Gust
km/h
Spd
kts
Gust
kts
21/11:30pm 25.7 30.5 22.2 81 2.3 CALM 0 0 0 0 1011.7 1011.6 0.0
21/11:00pm 25.6 30.2 22.5 83 2.1 N 2 6 1 3 1011.6 1011.5 0.0
21/10:30pm 25.3 28.9 22.0 82 2.2 NW 6 7 3 4 1011.4 1011.3 0.0
21/10:00pm 25.6 29.3 22.5 83 2.1 NW 7 9 4 5 1011.3 1011.2 0.0
21/09:30pm 25.7 29.6 22.6 83 2.1 W 6 7 3 4 1011.1 1011.0 0.0
21/09:00pm 26.0 29.7 22.3 80 2.5 W 6 7 3 4 1010.9 1010.8 0.0
21/08:30pm 26.2 29.3 22.1 78 2.7 WNW 9 11 5 6 1010.8 1010.7 0.0
21/08:00pm 26.6 29.6 22.0 76 3.1 WNW 9 11 5 6 1010.4 1010.3 0.0
21/07:30pm 26.4 28.8 20.9 72 3.6 NW 9 11 5 6 1010.1 1010.0 0.0
21/07:00pm 27.0 29.4 20.8 69 4.1 NW 9 11 5 6 1009.6 1009.5 0.0
21/06:30pm 27.8 30.1 20.6 65 4.8 NW 9 11 5 6 1009.4 1009.3 0.0
21/06:00pm 28.2 30.3 20.2 62 5.2 WNW 9 13 5 7 1009.2 1009.1 0.0
21/05:30pm 28.6 30.3 20.1 60 5.6 WNW 11 13 6 7 1009.2 1009.1 0.0
21/05:00pm 28.8 30.8 20.0 59 5.8 WNW 9 11 5 6 1008.9 1008.8 0.0
21/04:30pm 29.0 30.7 19.3 55 6.3 W 9 11 5 6 1009.1 1009.0 0.0
21/04:00pm 29.1 30.4 19.4 55 6.3 W 11 13 6 7 1009.3 1009.2 0.0
21/03:30pm 29.5 31.0 19.8 56 6.4 WSW 11 13 6 7 1009.6 1009.5 0.0

Other Formats:

Comma delimited format used in spreadsheet applications
http://www.bom.gov.au/fwo/IDD60801/IDD60801.94102.axf

JavaScript Object Notation format (JSON) in row-major order
http://www.bom.gov.au/fwo/IDD60801/IDD60801.94102.json